Historique des stations

Station météo de Maintenon

Altitude de la station : 131 m







Données météorologiques pour le 17/01/2021
Date
Heure
Températures Humidité Point de rosée Vitesse
du vent
Direction Rafales Windchill Pression Pluviométrie
Cumul
Date
Heure
Températures Humidité Point de rosée Vitesse
du vent
Direction Rafales Windchill Pression Pluviométrie
Cumul
17/01/2021 10:445.3 °C92 %4.4 °C5 km/hONO13 km/h5.0 1025 hPa0.8 mm
17/01/2021 10:294.6 °C94 %3.9 °C-O13 km/h4.4 1024 hPa0.8 mm
17/01/2021 10:154.3 °C95 %3.9 °C2 km/hNNO13 km/h3.9 1024 hPa0.8 mm
17/01/2021 09:594.0 °C95 %3.3 °C10 km/hO13 km/h1.1 1024 hPa0.8 mm
17/01/2021 09:453.7 °C95 %2.8 °C5 km/hO6 km/h2.8 1024 hPa0.8 mm
17/01/2021 09:293.5 °C95 %2.8 °C-NO6 km/h3.3 1024 hPa0.8 mm
17/01/2021 09:143.4 °C95 %2.8 °C-NO6 km/h3.3 1023 hPa0.8 mm
17/01/2021 09:003.6 °C95 %2.8 °C-NO6 km/h3.9 1023 hPa0.8 mm
17/01/2021 08:443.8 °C95 %3.3 °C-NO6 km/h3.9 1023 hPa0.8 mm
17/01/2021 08:294.3 °C95 %3.3 °C-O6 km/h4.4 1022 hPa0.8 mm
17/01/2021 08:154.4 °C96 %3.9 °C-NO6 km/h4.4 1022 hPa0.8 mm
17/01/2021 07:594.7 °C96 %3.9 °C-NO6 km/h4.4 1022 hPa0.8 mm
17/01/2021 07:454.7 °C96 %3.9 °C2 km/hNNO6 km/h3.9 1022 hPa0.8 mm
17/01/2021 07:294.6 °C96 %3.9 °C-NO6 km/h4.4 1022 hPa0.8 mm
17/01/2021 07:144.6 °C96 %3.9 °C-NNO6 km/h4.4 1022 hPa0.8 mm
17/01/2021 07:004.5 °C96 %3.9 °C-NNO6 km/h4.4 1022 hPa0.8 mm
17/01/2021 06:444.4 °C96 %3.9 °C-NNO6 km/h4.4 1022 hPa0.8 mm
17/01/2021 06:294.4 °C96 %3.9 °C-N6 km/h4.4 1022 hPa0.8 mm
17/01/2021 06:154.3 °C96 %3.9 °C-NO6 km/h4.4 1022 hPa0.8 mm
17/01/2021 05:594.3 °C96 %3.9 °C-NNO6 km/h4.4 1021 hPa0.8 mm
17/01/2021 05:454.3 °C96 %3.9 °C-NO6 km/h4.4 1021 hPa0.8 mm
17/01/2021 05:294.4 °C96 %3.9 °C-NO6 km/h4.4 1021 hPa0.8 mm
17/01/2021 05:144.4 °C96 %3.9 °C-NNE6 km/h4.4 1021 hPa0.8 mm
17/01/2021 05:004.3 °C96 %3.9 °C-OSO5 km/h4.4 1021 hPa0.8 mm
17/01/2021 04:444.3 °C96 %3.9 °C-OSO5 km/h4.4 1021 hPa0.8 mm
17/01/2021 04:294.4 °C96 %3.9 °C-OSO5 km/h4.4 1021 hPa0.8 mm
17/01/2021 04:154.5 °C96 %3.9 °C-OSO5 km/h4.4 1021 hPa0.8 mm
17/01/2021 03:594.6 °C96 %3.9 °C-OSO5 km/h4.4 1021 hPa0.8 mm
17/01/2021 03:454.8 °C96 %4.4 °C-OSO5 km/h5.0 1021 hPa0.8 mm
17/01/2021 03:294.9 °C96 %4.4 °C-OSO5 km/h5.0 1021 hPa0.6 mm
17/01/2021 03:144.9 °C96 %4.4 °C-OSO5 km/h5.0 1021 hPa0.6 mm
17/01/2021 03:004.9 °C96 %4.4 °C-OSO5 km/h5.0 1021 hPa0.6 mm
17/01/2021 02:444.8 °C96 %4.4 °C-OSO5 km/h5.0 1021 hPa0.6 mm
17/01/2021 02:294.7 °C96 %3.9 °C-OSO5 km/h4.4 1021 hPa0.4 mm
17/01/2021 02:154.5 °C96 %3.9 °C-OSO5 km/h4.4 1021 hPa0.4 mm
17/01/2021 01:594.2 °C96 %3.9 °C-S3 km/h4.4 1020 hPa0.4 mm
17/01/2021 01:453.9 °C96 %3.3 °C-S3 km/h3.9 1020 hPa0.4 mm
17/01/2021 01:293.5 °C96 %2.8 °C-S3 km/h3.3 1020 hPa0.4 mm
17/01/2021 01:133.4 °C96 %2.8 °C-S3 km/h3.3 1020 hPa0.2 mm
17/01/2021 00:593.4 °C95 %2.8 °C-S3 km/h3.3 1020 hPa0.2 mm
17/01/2021 00:453.3 °C96 %2.8 °C-S3 km/h3.3 1020 hPa0.2 mm
17/01/2021 00:293.0 °C96 %2.2 °C-S3 km/h2.8 1020 hPa0.2 mm
17/01/2021 00:132.4 °C96 %1.7 °C---2.2 1020 hPa-


Minima :

Température : 2.4 °C
Humidité : 92 %
Point de rosée : 1.7 °C
Vent moyen : 2 km/h
Windchill : 1.1
Pression atm. : 1020 hPa
Maxima :

Température : 5.3 °C
Humidité : 96 %
Point de rosée : 4.4 °C
Vent moyen : 10 km/h
Windchill : 5.0
Pression atm. : 1025 hPa
Rafales max : 13 km/h
Cumul de pluie sur 24H : 0.8 mm

Maintenon est une commune du département Eure-et-Loir (28).
La station météorologique du réseau de l'association la plus proche de Maintenon est celle de Chaudon
Site du propriétaire de la station : http://meteo.maingournois.pagesperso-orange.fr/



Icône Facebook Association Météo Centre Icône Twitter Association Météo Centre Icône Chaîne Youtube Association Météo Centre Icône contact Association Météo Centre Icône Insta Association Météo Centre